Kine — C6WT4 — position and weather

sailwx.info

Track history (hours):
 
Tides and Currents Weather Stations Pressure Air Temp Water Temp Dewpoint Dewpoint Depression Visibility Wind Speed Wind Dir Waves Ship Positions

Kine

Last reported at 2014-Sep-23 23:24 UTC. Time now 2014-Sep-24 02:31 UTC.
Position N 58°20' E 008°59'.

Length 89 m; draft 4.4 m.

Type: Cargo ship. MMSI: 311117000.

Date/timePositionNaut miles runAvg speedWind from/ knotsBaromVisibWave heightAir tempDewpointWater temp
2014-Sep-23 23:24N 58°20' E 008°59'7 8.3
2014-Sep-23 22:31N 58°16' E 008°47'8 8.4
2014-Sep-23 21:33N 58°11' E 008°35'9 8.9
2014-Sep-23 20:33N 58°05' E 008°22'59 8.1
2014-Sep-23 13:13N 58°03' E 006°30'6 9.5
2014-Sep-23 12:33N 58°07' E 006°21'1010.3
2014-Sep-23 11:33N 58°14' E 006°06'10 9.7
2014-Sep-23 10:33N 58°21' E 005°52'9 9.3
2014-Sep-23 09:33N 58°27' E 005°39'2010.1
2014-Sep-23 07:33N 58°44' E 005°17'1010.0
2014-Sep-23 06:33N 58°52' E 005°07'10 9.3
2014-Sep-23 05:29N 59°00' E 004°56'  
Track history (hours):
 
Tides and Currents Weather Stations Pressure Air Temp Water Temp Dewpoint Dewpoint Depression Visibility Wind Speed Wind Dir Waves Ship Positions

Kine

Last reported at 2014-Sep-23 23:24 UTC. Time now 2014-Sep-24 02:31 UTC.
Position N 58°20' E 008°59'.

Length 89 m; draft 4.4 m.

Type: Cargo ship. MMSI: 311117000.

Date/timePositionNaut miles runAvg speedWind from/ knotsBaromVisibWave heightAir tempDewpointWater temp
2014-Sep-23 23:24N 58°20' E 008°59'7 8.3
2014-Sep-23 22:31N 58°16' E 008°47'8 8.4
2014-Sep-23 21:33N 58°11' E 008°35'9 8.9
2014-Sep-23 20:33N 58°05' E 008°22'59 8.1
2014-Sep-23 13:13N 58°03' E 006°30'6 9.5
2014-Sep-23 12:33N 58°07' E 006°21'1010.3
2014-Sep-23 11:33N 58°14' E 006°06'10 9.7
2014-Sep-23 10:33N 58°21' E 005°52'9 9.3
2014-Sep-23 09:33N 58°27' E 005°39'2010.1
2014-Sep-23 07:33N 58°44' E 005°17'1010.0
2014-Sep-23 06:33N 58°52' E 005°07'10 9.3
2014-Sep-23 05:29N 59°00' E 004°56'  

Dump ship's entire track history